sensor_id;sensor_type;location;lat;lon;timestamp;pressure;altitude;pressure_sealevel;temperature;humidity
58534;BME280;44109;52.398;7.024;2024-02-23T00:02:07;98246.22;;;5.87;100.00
58534;BME280;44109;52.398;7.024;2024-02-23T00:04:35;98261.13;;;5.90;100.00
58534;BME280;44109;52.398;7.024;2024-02-23T00:07:02;98278.06;;;5.81;100.00
58534;BME280;44109;52.398;7.024;2024-02-23T00:09:30;98277.69;;;5.75;100.00
58534;BME280;44109;52.398;7.024;2024-02-23T00:12:00;98274.56;;;5.73;100.00
58534;BME280;44109;52.398;7.024;2024-02-23T00:14:29;98302.84;;;5.74;100.00
58534;BME280;44109;52.398;7.024;2024-02-23T00:16:57;98314.28;;;5.69;100.00
58534;BME280;44109;52.398;7.024;2024-02-23T00:19:30;98305.19;;;5.79;100.00
58534;BME280;44109;52.398;7.024;2024-02-23T00:21:58;98328.81;;;5.62;100.00
58534;BME280;44109;52.398;7.024;2024-02-23T00:24:26;98333.56;;;5.54;100.00
58534;BME280;44109;52.398;7.024;2024-02-23T00:26:53;98339.81;;;5.66;100.00
58534;BME280;44109;52.398;7.024;2024-02-23T00:29:21;98346.53;;;5.47;100.00
58534;BME280;44109;52.398;7.024;2024-02-23T00:31:49;98326.50;;;5.46;100.00
58534;BME280;44109;52.398;7.024;2024-02-23T00:34:17;98360.28;;;5.40;100.00
58534;BME280;44109;52.398;7.024;2024-02-23T00:36:46;98361.84;;;5.44;100.00
58534;BME280;44109;52.398;7.024;2024-02-23T00:39:14;98374.41;;;5.56;100.00
58534;BME280;44109;52.398;7.024;2024-02-23T00:41:42;98371.31;;;5.36;100.00
58534;BME280;44109;52.398;7.024;2024-02-23T00:44:09;98385.81;;;5.47;100.00
58534;BME280;44109;52.398;7.024;2024-02-23T00:46:37;98384.63;;;5.48;100.00
58534;BME280;44109;52.398;7.024;2024-02-23T00:49:05;98394.09;;;5.37;100.00
58534;BME280;44109;52.398;7.024;2024-02-23T00:51:33;98407.03;;;5.25;100.00
58534;BME280;44109;52.398;7.024;2024-02-23T00:54:01;98405.84;;;5.30;100.00
58534;BME280;44109;52.398;7.024;2024-02-23T00:56:32;98414.09;;;5.41;100.00
58534;BME280;44109;52.398;7.024;2024-02-23T00:58:59;98422.34;;;5.19;100.00
58534;BME280;44109;52.398;7.024;2024-02-23T01:01:27;98404.66;;;5.17;100.00
58534;BME280;44109;52.398;7.024;2024-02-23T01:03:55;98405.00;;;4.65;100.00
58534;BME280;44109;52.398;7.024;2024-02-23T01:06:23;98439.19;;;4.93;100.00
58534;BME280;44109;52.398;7.024;2024-02-23T01:08:51;98434.09;;;5.13;100.00
58534;BME280;44109;52.398;7.024;2024-02-23T01:11:20;98443.91;;;5.06;100.00
58534;BME280;44109;52.398;7.024;2024-02-23T01:13:47;98452.19;;;5.10;100.00
58534;BME280;44109;52.398;7.024;2024-02-23T01:16:15;98441.19;;;5.14;100.00
58534;BME280;44109;52.398;7.024;2024-02-23T01:18:43;98447.88;;;5.20;100.00
58534;BME280;44109;52.398;7.024;2024-02-23T01:21:10;98443.94;;;5.10;100.00
58534;BME280;44109;52.398;7.024;2024-02-23T01:23:38;98459.22;;;5.04;100.00
58534;BME280;44109;52.398;7.024;2024-02-23T01:26:05;98468.25;;;5.08;100.00
58534;BME280;44109;52.398;7.024;2024-02-23T01:28:34;98465.91;;;5.17;100.00
58534;BME280;44109;52.398;7.024;2024-02-23T01:31:03;98475.75;;;5.32;100.00
58534;BME280;44109;52.398;7.024;2024-02-23T01:33:34;98481.56;;;4.99;100.00
58534;BME280;44109;52.398;7.024;2024-02-23T01:36:03;98484.38;;;5.17;100.00
58534;BME280;44109;52.398;7.024;2024-02-23T01:38:31;98486.31;;;5.16;100.00
58534;BME280;44109;52.398;7.024;2024-02-23T01:41:00;98484.78;;;5.29;100.00
58534;BME280;44109;52.398;7.024;2024-02-23T01:43:28;98495.78;;;5.44;100.00
58534;BME280;44109;52.398;7.024;2024-02-23T01:45:57;98507.19;;;5.56;100.00
58534;BME280;44109;52.398;7.024;2024-02-23T01:48:25;98507.19;;;5.42;100.00
58534;BME280;44109;52.398;7.024;2024-02-23T01:50:53;98514.22;;;5.29;100.00
58534;BME280;44109;52.398;7.024;2024-02-23T01:53:22;98521.31;;;5.51;100.00
58534;BME280;44109;52.398;7.024;2024-02-23T01:55:53;98521.34;;;5.55;100.00
58534;BME280;44109;52.398;7.024;2024-02-23T01:58:21;98536.59;;;5.31;100.00
58534;BME280;44109;52.398;7.024;2024-02-23T02:00:49;98514.22;;;5.25;100.00
58534;BME280;44109;52.398;7.024;2024-02-23T02:03:18;98522.13;;;5.41;100.00
58534;BME280;44109;52.398;7.024;2024-02-23T02:05:46;98530.75;;;5.47;100.00
58534;BME280;44109;52.398;7.024;2024-02-23T02:08:15;98536.25;;;5.47;100.00
58534;BME280;44109;52.398;7.024;2024-02-23T02:10:44;98542.50;;;5.33;100.00
58534;BME280;44109;52.398;7.024;2024-02-23T02:13:12;98538.97;;;5.29;100.00
58534;BME280;44109;52.398;7.024;2024-02-23T02:15:40;98568.38;;;5.18;100.00
58534;BME280;44109;52.398;7.024;2024-02-23T02:18:09;98551.16;;;5.31;100.00
58534;BME280;44109;52.398;7.024;2024-02-23T02:20:40;98554.25;;;5.19;100.00
58534;BME280;44109;52.398;7.024;2024-02-23T02:23:19;98562.88;;;5.18;100.00
58534;BME280;44109;52.398;7.024;2024-02-23T02:25:52;98568.38;;;5.21;100.00
58534;BME280;44109;52.398;7.024;2024-02-23T02:28:20;98561.28;;;5.13;100.00
58534;BME280;44109;52.398;7.024;2024-02-23T02:30:48;98551.44;;;4.91;100.00
58534;BME280;44109;52.398;7.024;2024-02-23T02:33:16;98589.53;;;5.03;100.00
58534;BME280;44109;52.398;7.024;2024-02-23T02:35:45;98578.56;;;5.10;100.00
58534;BME280;44109;52.398;7.024;2024-02-23T02:38:13;98622.94;;;5.12;100.00
58534;BME280;44109;52.398;7.024;2024-02-23T02:40:41;98625.94;;;4.86;100.00
58534;BME280;44109;52.398;7.024;2024-02-23T02:43:08;98634.47;;;4.66;100.00
58534;BME280;44109;52.398;7.024;2024-02-23T02:45:37;98627.81;;;4.64;100.00
58534;BME280;44109;52.398;7.024;2024-02-23T02:48:05;98626.94;;;4.52;100.00
58534;BME280;44109;52.398;7.024;2024-02-23T02:50:33;98624.22;;;4.01;100.00
58534;BME280;44109;52.398;7.024;2024-02-23T02:53:03;98621.13;;;4.06;100.00
58534;BME280;44109;52.398;7.024;2024-02-23T02:55:31;98612.50;;;4.07;100.00
58534;BME280;44109;52.398;7.024;2024-02-23T02:57:58;98621.75;;;3.89;100.00
58534;BME280;44109;52.398;7.024;2024-02-23T03:00:26;98607.81;;;4.04;100.00
58534;BME280;44109;52.398;7.024;2024-02-23T03:02:54;98621.13;;;4.06;100.00
58534;BME280;44109;52.398;7.024;2024-02-23T03:05:21;98618.09;;;4.18;100.00
58534;BME280;44109;52.398;7.024;2024-02-23T03:07:49;98624.38;;;4.22;100.00
58534;BME280;44109;52.398;7.024;2024-02-23T03:10:18;98631.38;;;4.16;100.00
58534;BME280;44109;52.398;7.024;2024-02-23T03:12:46;98603.28;;;4.33;100.00
58534;BME280;44109;52.398;7.024;2024-02-23T03:15:14;98613.72;;;4.72;100.00
58534;BME280;44109;52.398;7.024;2024-02-23T03:17:42;98607.09;;;4.80;100.00
58534;BME280;44109;52.398;7.024;2024-02-23T03:20:11;98620.13;;;4.91;100.00
58534;BME280;44109;52.398;7.024;2024-02-23T03:22:38;98612.84;;;4.57;100.00
58534;BME280;44109;52.398;7.024;2024-02-23T03:25:07;98613.34;;;4.74;100.00
58534;BME280;44109;52.398;7.024;2024-02-23T03:27:37;98628.75;;;4.93;100.00
58534;BME280;44109;52.398;7.024;2024-02-23T03:30:06;98629.59;;;5.07;100.00
58534;BME280;44109;52.398;7.024;2024-02-23T03:32:37;98625.31;;;5.17;100.00
58534;BME280;44109;52.398;7.024;2024-02-23T03:35:06;98631.59;;;5.21;100.00
58534;BME280;44109;52.398;7.024;2024-02-23T03:37:34;98637.53;;;5.30;100.00
58534;BME280;44109;52.398;7.024;2024-02-23T03:40:02;98630.88;;;5.31;100.00
58534;BME280;44109;52.398;7.024;2024-02-23T03:42:30;98624.22;;;5.43;100.00
58534;BME280;44109;52.398;7.024;2024-02-23T03:44:59;98631.72;;;5.50;100.00
58534;BME280;44109;52.398;7.024;2024-02-23T03:47:27;98626.56;;;5.45;100.00
58534;BME280;44109;52.398;7.024;2024-02-23T03:49:54;98627.00;;;5.47;100.00
58534;BME280;44109;52.398;7.024;2024-02-23T03:52:23;98632.50;;;5.50;100.00
58534;BME280;44109;52.398;7.024;2024-02-23T03:54:51;98643.13;;;5.66;100.00
58534;BME280;44109;52.398;7.024;2024-02-23T03:57:20;98652.91;;;5.46;100.00
58534;BME280;44109;52.398;7.024;2024-02-23T03:59:54;98637.59;;;5.52;100.00
58534;BME280;44109;52.398;7.024;2024-02-23T04:02:24;98636.47;;;5.85;100.00
58534;BME280;44109;52.398;7.024;2024-02-23T04:04:51;98637.28;;;5.78;100.00
58534;BME280;44109;52.398;7.024;2024-02-23T04:07:20;98648.66;;;5.70;100.00
58534;BME280;44109;52.398;7.024;2024-02-23T04:09:47;98670.22;;;5.50;100.00
58534;BME280;44109;52.398;7.024;2024-02-23T04:12:18;98656.50;;;5.68;100.00
58534;BME280;44109;52.398;7.024;2024-02-23T04:14:46;98661.22;;;5.74;100.00
58534;BME280;44109;52.398;7.024;2024-02-23T04:17:14;98668.25;;;5.54;100.00
58534;BME280;44109;52.398;7.024;2024-02-23T04:19:43;98661.63;;;5.76;100.00
58534;BME280;44109;52.398;7.024;2024-02-23T04:22:12;98663.13;;;5.49;100.00
58534;BME280;44109;52.398;7.024;2024-02-23T04:24:40;98669.38;;;5.39;100.00
58534;BME280;44109;52.398;7.024;2024-02-23T04:27:08;98660.38;;;5.45;100.00
58534;BME280;44109;52.398;7.024;2024-02-23T04:29:36;98683.16;;;5.53;100.00
58534;BME280;44109;52.398;7.024;2024-02-23T04:32:04;98687.34;;;5.15;100.00
58534;BME280;44109;52.398;7.024;2024-02-23T04:34:34;98693.75;;;5.44;100.00
58534;BME280;44109;52.398;7.024;2024-02-23T04:37:03;98676.13;;;5.63;100.00
58534;BME280;44109;52.398;7.024;2024-02-23T04:39:31;98699.66;;;5.46;100.00
58534;BME280;44109;52.398;7.024;2024-02-23T04:41:59;98702.06;;;5.62;100.00
58534;BME280;44109;52.398;7.024;2024-02-23T04:44:26;98698.53;;;5.61;100.00
58534;BME280;44109;52.398;7.024;2024-02-23T04:46:54;98713.88;;;5.69;100.00
58534;BME280;44109;52.398;7.024;2024-02-23T04:49:22;98715.09;;;5.79;100.00
58534;BME280;44109;52.398;7.024;2024-02-23T04:51:49;98717.84;;;5.82;100.00
58534;BME280;44109;52.398;7.024;2024-02-23T04:54:18;98728.44;;;5.80;100.00
58534;BME280;44109;52.398;7.024;2024-02-23T04:56:46;98721.06;;;5.99;100.00
58534;BME280;44109;52.398;7.024;2024-02-23T04:59:14;98728.50;;;5.91;100.00
58534;BME280;44109;52.398;7.024;2024-02-23T05:01:42;98740.72;;;6.01;100.00
58534;BME280;44109;52.398;7.024;2024-02-23T05:04:09;98734.44;;;5.97;100.00
58534;BME280;44109;52.398;7.024;2024-02-23T05:06:37;98735.63;;;6.10;100.00
58534;BME280;44109;52.398;7.024;2024-02-23T05:09:05;98742.22;;;5.88;100.00
58534;BME280;44109;52.398;7.024;2024-02-23T05:11:36;98740.31;;;5.99;100.00
58534;BME280;44109;52.398;7.024;2024-02-23T05:14:04;98738.28;;;5.81;100.00
58534;BME280;44109;52.398;7.024;2024-02-23T05:16:32;98743.78;;;5.81;100.00
58534;BME280;44109;52.398;7.024;2024-02-23T05:19:00;98748.88;;;5.72;100.00
58534;BME280;44109;52.398;7.024;2024-02-23T05:21:28;98753.19;;;5.80;100.00
58534;BME280;44109;52.398;7.024;2024-02-23T05:23:57;98745.84;;;5.95;100.00
58534;BME280;44109;52.398;7.024;2024-02-23T05:26:25;98734.41;;;5.93;100.00
58534;BME280;44109;52.398;7.024;2024-02-23T05:28:54;98760.25;;;5.71;100.00
58534;BME280;44109;52.398;7.024;2024-02-23T05:31:45;98744.25;;;5.98;100.00
58534;BME280;44109;52.398;7.024;2024-02-23T05:34:15;98751.59;;;5.69;100.00
58534;BME280;44109;52.398;7.024;2024-02-23T05:36:43;98763.78;;;5.71;100.00
58534;BME280;44109;52.398;7.024;2024-02-23T05:39:11;98748.56;;;5.92;100.00
58534;BME280;44109;52.398;7.024;2024-02-23T05:41:41;98730.78;;;5.75;100.00
58534;BME280;44109;52.398;7.024;2024-02-23T05:44:10;98755.31;;;6.16;100.00
58534;BME280;44109;52.398;7.024;2024-02-23T05:46:39;98761.97;;;6.07;100.00
58534;BME280;44109;52.398;7.024;2024-02-23T05:49:06;98754.81;;;5.81;100.00
58534;BME280;44109;52.398;7.024;2024-02-23T05:51:35;98768.97;;;5.91;100.00
58534;BME280;44109;52.398;7.024;2024-02-23T05:54:03;98761.06;;;5.85;100.00
58534;BME280;44109;52.398;7.024;2024-02-23T05:56:30;98767.41;;;5.86;100.00
58534;BME280;44109;52.398;7.024;2024-02-23T05:58:58;98761.94;;;5.97;100.00
58534;BME280;44109;52.398;7.024;2024-02-23T06:01:27;98764.72;;;6.00;100.00
58534;BME280;44109;52.398;7.024;2024-02-23T06:03:54;98766.59;;;5.85;100.00
58534;BME280;44109;52.398;7.024;2024-02-23T06:06:22;98769.41;;;5.93;100.00
58534;BME280;44109;52.398;7.024;2024-02-23T06:08:49;98775.34;;;6.09;100.00
58534;BME280;44109;52.398;7.024;2024-02-23T06:11:17;98755.56;;;5.85;100.00
58534;BME280;44109;52.398;7.024;2024-02-23T06:13:44;98773.78;;;6.15;100.00
58534;BME280;44109;52.398;7.024;2024-02-23T06:16:12;98769.81;;;6.02;100.00
58534;BME280;44109;52.398;7.024;2024-02-23T06:18:41;98774.97;;;6.14;100.00
58534;BME280;44109;52.398;7.024;2024-02-23T06:21:13;98774.56;;;6.05;100.00
58534;BME280;44109;52.398;7.024;2024-02-23T06:23:41;98786.38;;;6.16;100.00
58534;BME280;44109;52.398;7.024;2024-02-23T06:26:09;98781.69;;;6.34;100.00
58534;BME280;44109;52.398;7.024;2024-02-23T06:28:37;98771.81;;;6.16;100.00
58534;BME280;44109;52.398;7.024;2024-02-23T06:31:07;98791.13;;;6.33;100.00
58534;BME280;44109;52.398;7.024;2024-02-23T06:33:35;98784.81;;;6.15;100.00
58534;BME280;44109;52.398;7.024;2024-02-23T06:36:05;98792.72;;;6.38;100.00
58534;BME280;44109;52.398;7.024;2024-02-23T06:38:34;98802.13;;;6.19;100.00
58534;BME280;44109;52.398;7.024;2024-02-23T06:41:02;98803.66;;;6.06;100.00
58534;BME280;44109;52.398;7.024;2024-02-23T06:43:28;98788.75;;;6.21;100.00
58534;BME280;44109;52.398;7.024;2024-02-23T06:45:56;98789.56;;;6.40;100.00
58534;BME280;44109;52.398;7.024;2024-02-23T06:48:23;98795.06;;;6.43;100.00
58534;BME280;44109;52.398;7.024;2024-02-23T06:50:53;98792.75;;;6.45;100.00
58534;BME280;44109;52.398;7.024;2024-02-23T06:53:22;98792.69;;;6.31;100.00
58534;BME280;44109;52.398;7.024;2024-02-23T06:55:49;98795.47;;;6.38;100.00
58534;BME280;44109;52.398;7.024;2024-02-23T06:58:17;98793.13;;;6.58;100.00
58534;BME280;44109;52.398;7.024;2024-02-23T07:00:44;98797.03;;;6.35;100.00
58534;BME280;44109;52.398;7.024;2024-02-23T07:03:12;98801.00;;;6.70;100.00
58534;BME280;44109;52.398;7.024;2024-02-23T07:05:40;98795.91;;;6.76;100.00
58534;BME280;44109;52.398;7.024;2024-02-23T07:08:08;98793.13;;;6.44;100.00
58534;BME280;44109;52.398;7.024;2024-02-23T07:10:37;98798.22;;;6.49;100.00
58534;BME280;44109;52.398;7.024;2024-02-23T07:13:06;98803.78;;;6.59;100.00
58534;BME280;44109;52.398;7.024;2024-02-23T07:15:34;98794.31;;;6.85;100.00
58534;BME280;44109;52.398;7.024;2024-02-23T07:18:02;98788.41;;;6.62;100.00
58534;BME280;44109;52.398;7.024;2024-02-23T07:20:30;98790.38;;;6.61;100.00
58534;BME280;44109;52.398;7.024;2024-02-23T07:22:58;98787.22;;;6.99;100.00
58534;BME280;44109;52.398;7.024;2024-02-23T07:25:26;98780.16;;;6.83;100.00
58534;BME280;44109;52.398;7.024;2024-02-23T07:27:55;98781.72;;;6.84;100.00
58534;BME280;44109;52.398;7.024;2024-02-23T07:30:24;98782.50;;;7.10;100.00
58534;BME280;44109;52.398;7.024;2024-02-23T07:32:51;98784.47;;;7.06;100.00
58534;BME280;44109;52.398;7.024;2024-02-23T07:35:19;98778.97;;;7.13;100.00
58534;BME280;44109;52.398;7.024;2024-02-23T07:37:47;98779.38;;;6.72;100.00
58534;BME280;44109;52.398;7.024;2024-02-23T07:40:15;98782.91;;;6.83;100.00
58534;BME280;44109;52.398;7.024;2024-02-23T07:42:42;98781.75;;;6.77;100.00
58534;BME280;44109;52.398;7.024;2024-02-23T07:45:11;98786.44;;;7.02;100.00
58534;BME280;44109;52.398;7.024;2024-02-23T07:47:42;98787.63;;;6.54;100.00
58534;BME280;44109;52.398;7.024;2024-02-23T07:50:10;98802.22;;;7.05;100.00
58534;BME280;44109;52.398;7.024;2024-02-23T07:52:38;98790.00;;;6.88;100.00
58534;BME280;44109;52.398;7.024;2024-02-23T07:55:07;98787.63;;;6.79;100.00
58534;BME280;44109;52.398;7.024;2024-02-23T07:57:36;98793.13;;;7.08;100.00
58534;BME280;44109;52.398;7.024;2024-02-23T08:00:06;98786.84;;;7.00;100.00
58534;BME280;44109;52.398;7.024;2024-02-23T08:02:37;98785.63;;;7.23;100.00
58534;BME280;44109;52.398;7.024;2024-02-23T08:05:05;98798.66;;;7.22;100.00
58534;BME280;44109;52.398;7.024;2024-02-23T08:07:33;98783.63;;;7.34;100.00
58534;BME280;44109;52.398;7.024;2024-02-23T08:10:02;98804.91;;;7.33;100.00
58534;BME280;44109;52.398;7.024;2024-02-23T08:12:31;98798.25;;;7.20;100.00
58534;BME280;44109;52.398;7.024;2024-02-23T08:14:58;98811.63;;;7.36;100.00
58534;BME280;44109;52.398;7.024;2024-02-23T08:17:26;98812.00;;;7.34;100.00
58534;BME280;44109;52.398;7.024;2024-02-23T08:19:55;98802.53;;;7.39;100.00
58534;BME280;44109;52.398;7.024;2024-02-23T08:22:22;98802.44;;;7.78;100.00
58534;BME280;44109;52.398;7.024;2024-02-23T08:24:50;98806.63;;;8.08;100.00
58534;BME280;44109;52.398;7.024;2024-02-23T08:27:18;98798.66;;;8.31;100.00
58534;BME280;44109;52.398;7.024;2024-02-23T08:29:45;98806.44;;;8.54;100.00
58534;BME280;44109;52.398;7.024;2024-02-23T08:32:13;98799.44;;;8.28;100.00
58534;BME280;44109;52.398;7.024;2024-02-23T08:34:41;98793.06;;;8.42;100.00
58534;BME280;44109;52.398;7.024;2024-02-23T08:37:10;98794.59;;;8.50;100.00
58534;BME280;44109;52.398;7.024;2024-02-23T08:39:38;98803.59;;;7.84;100.00
58534;BME280;44109;52.398;7.024;2024-02-23T08:42:07;98793.94;;;8.21;100.00
58534;BME280;44109;52.398;7.024;2024-02-23T08:44:34;98804.13;;;8.38;100.00
58534;BME280;44109;52.398;7.024;2024-02-23T08:47:05;98801.34;;;8.98;100.00
58534;BME280;44109;52.398;7.024;2024-02-23T08:49:32;98792.59;;;9.03;100.00
58534;BME280;44109;52.398;7.024;2024-02-23T08:52:00;98799.00;;;9.37;100.00
58534;BME280;44109;52.398;7.024;2024-02-23T08:54:30;98784.56;;;9.19;100.00
58534;BME280;44109;52.398;7.024;2024-02-23T08:56:57;98769.66;;;9.09;100.00
58534;BME280;44109;52.398;7.024;2024-02-23T08:59:25;98769.09;;;9.25;100.00
58534;BME280;44109;52.398;7.024;2024-02-23T09:01:53;98782.00;;;9.35;100.00
58534;BME280;44109;52.398;7.024;2024-02-23T09:04:20;98777.28;;;9.36;100.00
58534;BME280;44109;52.398;7.024;2024-02-23T09:06:48;98777.31;;;9.32;100.00
58534;BME280;44109;52.398;7.024;2024-02-23T09:09:16;98790.78;;;9.68;100.00
58534;BME280;44109;52.398;7.024;2024-02-23T09:11:45;98775.00;;;9.27;100.00
58534;BME280;44109;52.398;7.024;2024-02-23T09:14:13;98786.88;;;9.24;100.00
58534;BME280;44109;52.398;7.024;2024-02-23T09:16:40;98788.75;;;8.89;100.00
58534;BME280;44109;52.398;7.024;2024-02-23T09:19:08;98782.72;;;9.47;100.00
58534;BME280;44109;52.398;7.024;2024-02-23T09:21:35;98781.53;;;9.06;100.00
58534;BME280;44109;52.398;7.024;2024-02-23T09:24:05;98778.84;;;9.37;100.00
58534;BME280;44109;52.398;7.024;2024-02-23T09:26:33;98782.13;;;9.97;100.00
58534;BME280;44109;52.398;7.024;2024-02-23T09:29:02;98781.41;;;9.17;100.00
58534;BME280;44109;52.398;7.024;2024-02-23T09:31:30;98787.16;;;9.71;100.00
58534;BME280;44109;52.398;7.024;2024-02-23T09:33:58;98790.69;;;9.75;100.00
58534;BME280;44109;52.398;7.024;2024-02-23T09:36:26;98790.28;;;9.77;100.00
58534;BME280;44109;52.398;7.024;2024-02-23T09:38:54;98787.56;;;9.35;100.00
58534;BME280;44109;52.398;7.024;2024-02-23T09:41:23;98796.25;;;9.37;100.00
58534;BME280;44109;52.398;7.024;2024-02-23T09:43:51;98803.44;;;8.86;100.00
58534;BME280;44109;52.398;7.024;2024-02-23T09:46:21;98800.53;;;9.01;100.00
58534;BME280;44109;52.398;7.024;2024-02-23T09:48:49;98811.09;;;9.13;100.00
58534;BME280;44109;52.398;7.024;2024-02-23T09:51:17;98804.44;;;9.07;100.00
58534;BME280;44109;52.398;7.024;2024-02-23T09:53:47;98810.38;;;9.47;100.00
58534;BME280;44109;52.398;7.024;2024-02-23T09:56:17;98805.06;;;9.25;100.00
58534;BME280;44109;52.398;7.024;2024-02-23T09:58:46;98821.41;;;9.50;100.00
58534;BME280;44109;52.398;7.024;2024-02-23T10:01:24;98818.34;;;9.41;100.00
58534;BME280;44109;52.398;7.024;2024-02-23T10:03:56;98818.63;;;9.54;100.00
58534;BME280;44109;52.398;7.024;2024-02-23T10:06:24;98821.69;;;9.63;100.00
58534;BME280;44109;52.398;7.024;2024-02-23T10:08:52;98822.28;;;10.12;100.00
58534;BME280;44109;52.398;7.024;2024-02-23T10:11:21;98825.69;;;9.93;100.00
58534;BME280;44109;52.398;7.024;2024-02-23T10:13:49;98804.28;;;9.97;100.00
58534;BME280;44109;52.398;7.024;2024-02-23T10:16:18;98831.72;;;9.50;100.00
58534;BME280;44109;52.398;7.024;2024-02-23T10:18:48;98832.88;;;9.49;100.00
58534;BME280;44109;52.398;7.024;2024-02-23T10:21:16;98826.31;;;9.73;100.00
58534;BME280;44109;52.398;7.024;2024-02-23T10:23:45;98841.72;;;9.74;100.00
58534;BME280;44109;52.398;7.024;2024-02-23T10:26:13;98839.16;;;9.56;100.00
58534;BME280;44109;52.398;7.024;2024-02-23T10:28:45;98841.72;;;9.36;100.00
58534;BME280;44109;52.398;7.024;2024-02-23T10:31:13;98849.00;;;9.57;100.00
58534;BME280;44109;52.398;7.024;2024-02-23T10:33:41;98817.50;;;9.44;100.00
58534;BME280;44109;52.398;7.024;2024-02-23T10:36:15;98851.38;;;9.59;100.00
58534;BME280;44109;52.398;7.024;2024-02-23T10:38:45;98851.31;;;9.66;100.00
58534;BME280;44109;52.398;7.024;2024-02-23T10:41:13;98858.69;;;9.38;100.00
58534;BME280;44109;52.398;7.024;2024-02-23T10:43:44;98862.66;;;9.37;100.00
58534;BME280;44109;52.398;7.024;2024-02-23T10:46:15;98855.59;;;9.29;100.00
58534;BME280;44109;52.398;7.024;2024-02-23T10:48:44;98852.94;;;9.19;100.00
58534;BME280;44109;52.398;7.024;2024-02-23T10:51:14;98851.88;;;9.02;100.00
58534;BME280;44109;52.398;7.024;2024-02-23T10:53:43;98851.19;;;9.35;100.00
58534;BME280;44109;52.398;7.024;2024-02-23T10:56:12;98847.59;;;8.94;100.00
58534;BME280;44109;52.398;7.024;2024-02-23T10:58:40;98854.78;;;9.36;100.00
58534;BME280;44109;52.398;7.024;2024-02-23T11:01:09;98853.66;;;9.26;100.00
58534;BME280;44109;52.398;7.024;2024-02-23T11:03:41;98847.75;;;9.24;100.00
58534;BME280;44109;52.398;7.024;2024-02-23T11:06:15;98856.69;;;9.43;100.00
58534;BME280;44109;52.398;7.024;2024-02-23T11:08:46;98856.94;;;9.55;100.00
58534;BME280;44109;52.398;7.024;2024-02-23T11:11:16;98849.72;;;9.65;100.00
58534;BME280;44109;52.398;7.024;2024-02-23T11:13:45;98862.22;;;9.43;100.00
58534;BME280;44109;52.398;7.024;2024-02-23T11:16:22;98855.56;;;9.36;100.00
58534;BME280;44109;52.398;7.024;2024-02-23T11:19:03;98860.50;;;9.11;100.00
58534;BME280;44109;52.398;7.024;2024-02-23T11:21:36;98831.03;;;9.35;100.00
58534;BME280;44109;52.398;7.024;2024-02-23T11:24:06;98856.63;;;9.50;100.00
58534;BME280;44109;52.398;7.024;2024-02-23T11:26:36;98877.13;;;9.52;100.00
58534;BME280;44109;52.398;7.024;2024-02-23T11:29:10;98867.25;;;9.55;100.00
58534;BME280;44109;52.398;7.024;2024-02-23T11:31:44;98865.59;;;9.61;100.00
58534;BME280;44109;52.398;7.024;2024-02-23T11:34:13;98858.00;;;9.27;100.00
58534;BME280;44109;52.398;7.024;2024-02-23T11:36:51;98870.47;;;9.50;100.00
58534;BME280;44109;52.398;7.024;2024-02-23T11:39:20;98868.09;;;9.45;100.00
58534;BME280;44109;52.398;7.024;2024-02-23T11:41:48;98870.63;;;9.28;100.00
58534;BME280;44109;52.398;7.024;2024-02-23T11:44:16;98866.09;;;9.04;100.00
58534;BME280;44109;52.398;7.024;2024-02-23T11:46:44;98865.97;;;8.62;100.00
58534;BME280;44109;52.398;7.024;2024-02-23T11:49:14;98879.50;;;8.46;100.00
58534;BME280;44109;52.398;7.024;2024-02-23T11:51:42;98875.44;;;8.69;100.00
58534;BME280;44109;52.398;7.024;2024-02-23T11:54:12;98879.50;;;8.46;100.00
58534;BME280;44109;52.398;7.024;2024-02-23T11:56:40;98880.69;;;8.34;100.00
58534;BME280;44109;52.398;7.024;2024-02-23T11:59:08;98874.34;;;8.48;100.00
58534;BME280;44109;52.398;7.024;2024-02-23T12:01:37;98906.03;;;8.22;100.00
58534;BME280;44109;52.398;7.024;2024-02-23T12:04:05;98883.16;;;8.04;100.00
58534;BME280;44109;52.398;7.024;2024-02-23T12:06:33;98887.94;;;8.00;100.00
58534;BME280;44109;52.398;7.024;2024-02-23T12:09:01;98903.75;;;7.88;100.00
58534;BME280;44109;52.398;7.024;2024-02-23T12:11:32;98904.16;;;7.80;100.00
58534;BME280;44109;52.398;7.024;2024-02-23T12:14:00;98896.97;;;8.07;100.00
58534;BME280;44109;52.398;7.024;2024-02-23T12:16:28;98905.72;;;7.92;100.00
58534;BME280;44109;52.398;7.024;2024-02-23T12:18:55;98908.06;;;8.00;100.00
58534;BME280;44109;52.398;7.024;2024-02-23T12:21:27;98912.88;;;7.64;100.00
58534;BME280;44109;52.398;7.024;2024-02-23T12:23:54;98917.13;;;7.94;100.00
58534;BME280;44109;52.398;7.024;2024-02-23T12:26:22;98905.25;;;8.04;100.00
58534;BME280;44109;52.398;7.024;2024-02-23T12:28:51;98914.66;;;8.38;100.00
58534;BME280;44109;52.398;7.024;2024-02-23T12:31:23;98924.94;;;8.20;100.00
58534;BME280;44109;52.398;7.024;2024-02-23T12:33:52;98919.34;;;8.49;100.00
58534;BME280;44109;52.398;7.024;2024-02-23T12:36:20;98918.53;;;8.55;100.00
58534;BME280;44109;52.398;7.024;2024-02-23T12:38:47;98924.41;;;8.64;100.00
58534;BME280;44109;52.398;7.024;2024-02-23T12:41:15;98921.66;;;8.61;100.00
58534;BME280;44109;52.398;7.024;2024-02-23T12:43:43;98917.63;;;8.76;100.00
58534;BME280;44109;52.398;7.024;2024-02-23T12:46:12;98918.44;;;8.77;100.00
58534;BME280;44109;52.398;7.024;2024-02-23T12:48:40;98922.31;;;8.86;100.00
58534;BME280;44109;52.398;7.024;2024-02-23T12:51:08;98940.50;;;8.80;100.00
58534;BME280;44109;52.398;7.024;2024-02-23T12:53:37;98964.31;;;8.60;100.00
58534;BME280;44109;52.398;7.024;2024-02-23T12:56:07;98972.13;;;8.76;100.00
58534;BME280;44109;52.398;7.024;2024-02-23T12:58:36;98960.63;;;8.81;100.00
58534;BME280;44109;52.398;7.024;2024-02-23T13:01:04;98933.75;;;8.88;100.00
58534;BME280;44109;52.398;7.024;2024-02-23T13:03:34;98936.16;;;8.79;100.00
58534;BME280;44109;52.398;7.024;2024-02-23T13:06:03;98931.84;;;8.71;100.00
58534;BME280;44109;52.398;7.024;2024-02-23T13:08:32;98941.25;;;8.92;100.00